sensor_id;sensor_type;location;lat;lon;timestamp;temperature;humidity
15259;DHT22;34462;51.368;12.364;2024-01-11T00:01:08;-6.90;99.90
15259;DHT22;34462;51.368;12.364;2024-01-11T00:03:39;-7.00;99.90
15259;DHT22;34462;51.368;12.364;2024-01-11T00:06:07;-7.00;99.90
15259;DHT22;34462;51.368;12.364;2024-01-11T00:08:35;-7.10;99.90
15259;DHT22;34462;51.368;12.364;2024-01-11T00:11:04;-7.10;99.90
15259;DHT22;34462;51.368;12.364;2024-01-11T00:13:33;-7.10;99.90
15259;DHT22;34462;51.368;12.364;2024-01-11T00:16:01;-7.20;99.90
15259;DHT22;34462;51.368;12.364;2024-01-11T00:18:29;-7.20;99.90
15259;DHT22;34462;51.368;12.364;2024-01-11T00:20:59;-7.30;99.90
15259;DHT22;34462;51.368;12.364;2024-01-11T00:23:27;-7.30;99.90
15259;DHT22;34462;51.368;12.364;2024-01-11T00:25:56;-7.30;99.90
15259;DHT22;34462;51.368;12.364;2024-01-11T00:28:24;-7.30;99.90
15259;DHT22;34462;51.368;12.364;2024-01-11T00:30:52;-7.30;99.90
15259;DHT22;34462;51.368;12.364;2024-01-11T00:33:21;-7.30;99.90
15259;DHT22;34462;51.368;12.364;2024-01-11T00:35:49;-7.30;99.90
15259;DHT22;34462;51.368;12.364;2024-01-11T00:38:19;-7.40;99.90
15259;DHT22;34462;51.368;12.364;2024-01-11T00:40:47;-7.30;99.90
15259;DHT22;34462;51.368;12.364;2024-01-11T00:43:15;-7.30;99.90
15259;DHT22;34462;51.368;12.364;2024-01-11T00:45:44;-7.40;99.90
15259;DHT22;34462;51.368;12.364;2024-01-11T00:48:13;-7.40;99.90
15259;DHT22;34462;51.368;12.364;2024-01-11T00:50:42;-7.40;99.90
15259;DHT22;34462;51.368;12.364;2024-01-11T00:53:10;-7.30;99.90
15259;DHT22;34462;51.368;12.364;2024-01-11T00:55:42;-7.40;99.90
15259;DHT22;34462;51.368;12.364;2024-01-11T00:58:11;-7.40;99.90
15259;DHT22;34462;51.368;12.364;2024-01-11T01:00:39;-7.40;99.90
15259;DHT22;34462;51.368;12.364;2024-01-11T01:03:07;-7.40;99.90
15259;DHT22;34462;51.368;12.364;2024-01-11T01:05:36;-7.40;99.90
15259;DHT22;34462;51.368;12.364;2024-01-11T01:08:04;-7.40;99.90
15259;DHT22;34462;51.368;12.364;2024-01-11T01:10:32;-7.40;99.90
15259;DHT22;34462;51.368;12.364;2024-01-11T01:13:02;-7.40;99.90
15259;DHT22;34462;51.368;12.364;2024-01-11T01:15:31;-7.50;99.90
15259;DHT22;34462;51.368;12.364;2024-01-11T01:17:59;-7.40;99.90
15259;DHT22;34462;51.368;12.364;2024-01-11T01:20:28;-7.40;99.90
15259;DHT22;34462;51.368;12.364;2024-01-11T01:22:56;-7.40;99.90
15259;DHT22;34462;51.368;12.364;2024-01-11T01:25:25;-7.40;99.90
15259;DHT22;34462;51.368;12.364;2024-01-11T01:27:54;-7.50;99.90
15259;DHT22;34462;51.368;12.364;2024-01-11T01:30:24;-7.50;99.90
15259;DHT22;34462;51.368;12.364;2024-01-11T01:32:53;-7.50;99.90
15259;DHT22;34462;51.368;12.364;2024-01-11T01:35:21;-7.50;99.90
15259;DHT22;34462;51.368;12.364;2024-01-11T01:37:50;-7.50;99.90
15259;DHT22;34462;51.368;12.364;2024-01-11T01:40:18;-7.50;99.90
15259;DHT22;34462;51.368;12.364;2024-01-11T01:42:48;-7.50;99.90
15259;DHT22;34462;51.368;12.364;2024-01-11T01:45:17;-7.50;99.90
15259;DHT22;34462;51.368;12.364;2024-01-11T01:47:46;-7.60;99.90
15259;DHT22;34462;51.368;12.364;2024-01-11T01:50:15;-7.60;99.90
15259;DHT22;34462;51.368;12.364;2024-01-11T01:52:43;-7.50;99.90
15259;DHT22;34462;51.368;12.364;2024-01-11T01:55:12;-7.60;99.90
15259;DHT22;34462;51.368;12.364;2024-01-11T01:57:44;-7.50;99.90
15259;DHT22;34462;51.368;12.364;2024-01-11T02:00:13;-7.60;99.90
15259;DHT22;34462;51.368;12.364;2024-01-11T02:02:43;-7.50;99.90
15259;DHT22;34462;51.368;12.364;2024-01-11T02:05:15;-7.50;99.90
15259;DHT22;34462;51.368;12.364;2024-01-11T02:07:44;-7.60;99.90
15259;DHT22;34462;51.368;12.364;2024-01-11T02:10:13;-7.60;99.90
15259;DHT22;34462;51.368;12.364;2024-01-11T02:12:41;-7.60;99.90
15259;DHT22;34462;51.368;12.364;2024-01-11T02:15:10;-7.60;99.90
15259;DHT22;34462;51.368;12.364;2024-01-11T02:17:40;-7.60;99.90
15259;DHT22;34462;51.368;12.364;2024-01-11T02:20:10;-7.60;99.90
15259;DHT22;34462;51.368;12.364;2024-01-11T02:22:42;-7.60;99.90
15259;DHT22;34462;51.368;12.364;2024-01-11T02:25:16;-7.60;99.90
15259;DHT22;34462;51.368;12.364;2024-01-11T02:27:45;-7.60;99.90
15259;DHT22;34462;51.368;12.364;2024-01-11T02:30:14;-7.70;99.90
15259;DHT22;34462;51.368;12.364;2024-01-11T02:32:44;-7.80;99.90
15259;DHT22;34462;51.368;12.364;2024-01-11T02:35:14;-7.80;99.90
15259;DHT22;34462;51.368;12.364;2024-01-11T02:37:43;-7.80;99.90
15259;DHT22;34462;51.368;12.364;2024-01-11T02:40:13;-7.80;99.90
15259;DHT22;34462;51.368;12.364;2024-01-11T02:42:43;-7.70;99.90
15259;DHT22;34462;51.368;12.364;2024-01-11T02:45:12;-7.70;99.90
15259;DHT22;34462;51.368;12.364;2024-01-11T02:47:40;-7.70;99.90
15259;DHT22;34462;51.368;12.364;2024-01-11T02:50:09;-7.70;99.90
15259;DHT22;34462;51.368;12.364;2024-01-11T02:52:39;-7.70;99.90
15259;DHT22;34462;51.368;12.364;2024-01-11T02:55:07;-7.70;99.90
15259;DHT22;34462;51.368;12.364;2024-01-11T02:57:36;-7.70;99.90
15259;DHT22;34462;51.368;12.364;2024-01-11T03:00:06;-7.70;99.90
15259;DHT22;34462;51.368;12.364;2024-01-11T03:02:37;-7.60;99.90
15259;DHT22;34462;51.368;12.364;2024-01-11T03:05:06;-7.70;99.90
15259;DHT22;34462;51.368;12.364;2024-01-11T03:07:34;-7.60;99.90
15259;DHT22;34462;51.368;12.364;2024-01-11T03:10:03;-7.70;99.90
15259;DHT22;34462;51.368;12.364;2024-01-11T03:12:31;-7.70;99.90
15259;DHT22;34462;51.368;12.364;2024-01-11T03:15:00;-7.70;99.90
15259;DHT22;34462;51.368;12.364;2024-01-11T03:17:29;-7.70;99.90
15259;DHT22;34462;51.368;12.364;2024-01-11T03:19:58;-7.70;99.90
15259;DHT22;34462;51.368;12.364;2024-01-11T03:22:26;-7.60;99.90
15259;DHT22;34462;51.368;12.364;2024-01-11T03:24:55;-7.70;99.90
15259;DHT22;34462;51.368;12.364;2024-01-11T03:27:23;-7.70;99.90
15259;DHT22;34462;51.368;12.364;2024-01-11T03:29:51;-7.70;99.90
15259;DHT22;34462;51.368;12.364;2024-01-11T03:32:19;-7.80;99.90
15259;DHT22;34462;51.368;12.364;2024-01-11T03:34:49;-7.80;99.90
15259;DHT22;34462;51.368;12.364;2024-01-11T03:37:17;-7.80;99.90
15259;DHT22;34462;51.368;12.364;2024-01-11T03:39:45;-7.80;99.90
15259;DHT22;34462;51.368;12.364;2024-01-11T03:42:13;-7.80;99.90
15259;DHT22;34462;51.368;12.364;2024-01-11T03:44:42;-7.80;99.90
15259;DHT22;34462;51.368;12.364;2024-01-11T03:47:10;-7.80;99.90
15259;DHT22;34462;51.368;12.364;2024-01-11T03:49:38;-7.80;99.90
15259;DHT22;34462;51.368;12.364;2024-01-11T03:52:08;-7.80;99.90
15259;DHT22;34462;51.368;12.364;2024-01-11T03:54:36;-7.80;99.90
15259;DHT22;34462;51.368;12.364;2024-01-11T03:57:05;-7.80;99.90
15259;DHT22;34462;51.368;12.364;2024-01-11T03:59:33;-7.80;99.90
15259;DHT22;34462;51.368;12.364;2024-01-11T04:02:01;-7.90;99.90
15259;DHT22;34462;51.368;12.364;2024-01-11T04:04:30;-7.90;99.90
15259;DHT22;34462;51.368;12.364;2024-01-11T04:06:58;-7.80;99.90
15259;DHT22;34462;51.368;12.364;2024-01-11T04:09:28;-7.80;99.90
15259;DHT22;34462;51.368;12.364;2024-01-11T04:11:56;-7.80;99.90
15259;DHT22;34462;51.368;12.364;2024-01-11T04:14:24;-7.90;99.90
15259;DHT22;34462;51.368;12.364;2024-01-11T04:16:53;-7.90;99.90
15259;DHT22;34462;51.368;12.364;2024-01-11T04:19:21;-7.90;99.90
15259;DHT22;34462;51.368;12.364;2024-01-11T04:21:50;-7.90;99.90
15259;DHT22;34462;51.368;12.364;2024-01-11T04:24:19;-7.90;99.90
15259;DHT22;34462;51.368;12.364;2024-01-11T04:26:48;-7.90;99.90
15259;DHT22;34462;51.368;12.364;2024-01-11T04:29:16;-7.90;99.90
15259;DHT22;34462;51.368;12.364;2024-01-11T04:31:45;-7.90;99.90
15259;DHT22;34462;51.368;12.364;2024-01-11T04:34:13;-7.90;99.90
15259;DHT22;34462;51.368;12.364;2024-01-11T04:36:41;-7.90;99.90
15259;DHT22;34462;51.368;12.364;2024-01-11T04:39:09;-7.90;99.90
15259;DHT22;34462;51.368;12.364;2024-01-11T04:41:39;-7.90;99.90
15259;DHT22;34462;51.368;12.364;2024-01-11T04:44:09;-7.90;99.90
15259;DHT22;34462;51.368;12.364;2024-01-11T04:46:38;-7.90;99.90
15259;DHT22;34462;51.368;12.364;2024-01-11T04:49:06;-7.90;99.90
15259;DHT22;34462;51.368;12.364;2024-01-11T04:51:34;-7.90;99.90
15259;DHT22;34462;51.368;12.364;2024-01-11T04:54:03;-7.90;99.90
15259;DHT22;34462;51.368;12.364;2024-01-11T04:56:31;-7.90;99.90
15259;DHT22;34462;51.368;12.364;2024-01-11T04:58:59;-7.90;99.90
15259;DHT22;34462;51.368;12.364;2024-01-11T05:01:29;-7.90;99.90
15259;DHT22;34462;51.368;12.364;2024-01-11T05:03:57;-7.90;99.90
15259;DHT22;34462;51.368;12.364;2024-01-11T05:06:26;-7.80;99.90
15259;DHT22;34462;51.368;12.364;2024-01-11T05:08:54;-7.80;99.90
15259;DHT22;34462;51.368;12.364;2024-01-11T05:11:23;-7.80;99.90
15259;DHT22;34462;51.368;12.364;2024-01-11T05:13:53;-7.80;99.90
15259;DHT22;34462;51.368;12.364;2024-01-11T05:16:23;-7.80;99.90
15259;DHT22;34462;51.368;12.364;2024-01-11T05:18:55;-7.80;99.90
15259;DHT22;34462;51.368;12.364;2024-01-11T05:21:26;-7.90;99.90
15259;DHT22;34462;51.368;12.364;2024-01-11T05:23:54;-7.90;99.90
15259;DHT22;34462;51.368;12.364;2024-01-11T05:26:22;-8.00;99.90
15259;DHT22;34462;51.368;12.364;2024-01-11T05:28:50;-7.90;99.90
15259;DHT22;34462;51.368;12.364;2024-01-11T05:31:19;-8.00;99.90
15259;DHT22;34462;51.368;12.364;2024-01-11T05:33:47;-8.00;99.90
15259;DHT22;34462;51.368;12.364;2024-01-11T05:36:17;-7.90;99.90
15259;DHT22;34462;51.368;12.364;2024-01-11T05:38:45;-7.90;99.90
15259;DHT22;34462;51.368;12.364;2024-01-11T05:41:14;-7.90;99.90
15259;DHT22;34462;51.368;12.364;2024-01-11T05:43:42;-7.90;99.90
15259;DHT22;34462;51.368;12.364;2024-01-11T05:46:11;-7.70;99.90
15259;DHT22;34462;51.368;12.364;2024-01-11T05:48:39;-7.90;99.90
15259;DHT22;34462;51.368;12.364;2024-01-11T05:51:08;-7.90;99.90
15259;DHT22;34462;51.368;12.364;2024-01-11T05:53:38;-7.90;99.90
15259;DHT22;34462;51.368;12.364;2024-01-11T05:56:09;-7.90;99.90
15259;DHT22;34462;51.368;12.364;2024-01-11T05:58:39;-7.90;99.90
15259;DHT22;34462;51.368;12.364;2024-01-11T06:01:07;-7.90;99.90
15259;DHT22;34462;51.368;12.364;2024-01-11T06:03:36;-7.90;99.90
15259;DHT22;34462;51.368;12.364;2024-01-11T06:06:06;-7.80;99.90
15259;DHT22;34462;51.368;12.364;2024-01-11T06:08:35;-7.80;99.90
15259;DHT22;34462;51.368;12.364;2024-01-11T06:11:05;-7.70;99.90
15259;DHT22;34462;51.368;12.364;2024-01-11T06:13:34;-7.70;99.90
15259;DHT22;34462;51.368;12.364;2024-01-11T06:16:03;-7.70;99.90
15259;DHT22;34462;51.368;12.364;2024-01-11T06:18:32;-7.80;99.90
15259;DHT22;34462;51.368;12.364;2024-01-11T06:21:00;-7.80;99.90
15259;DHT22;34462;51.368;12.364;2024-01-11T06:23:28;-7.80;99.90
15259;DHT22;34462;51.368;12.364;2024-01-11T06:25:58;-7.90;99.90
15259;DHT22;34462;51.368;12.364;2024-01-11T06:28:26;-7.90;99.90
15259;DHT22;34462;51.368;12.364;2024-01-11T06:30:55;-7.80;99.90
15259;DHT22;34462;51.368;12.364;2024-01-11T06:33:23;-7.90;99.90
15259;DHT22;34462;51.368;12.364;2024-01-11T06:35:51;-7.80;99.90
15259;DHT22;34462;51.368;12.364;2024-01-11T06:38:20;-7.70;99.90
15259;DHT22;34462;51.368;12.364;2024-01-11T06:40:48;-7.70;99.90
15259;DHT22;34462;51.368;12.364;2024-01-11T06:43:18;-7.70;99.90
15259;DHT22;34462;51.368;12.364;2024-01-11T06:45:46;-7.70;99.90
15259;DHT22;34462;51.368;12.364;2024-01-11T06:48:14;-7.70;99.90
15259;DHT22;34462;51.368;12.364;2024-01-11T06:50:43;-7.70;99.90
15259;DHT22;34462;51.368;12.364;2024-01-11T06:53:12;-7.70;99.90
15259;DHT22;34462;51.368;12.364;2024-01-11T06:55:40;-7.60;99.90
15259;DHT22;34462;51.368;12.364;2024-01-11T06:58:10;-7.60;99.90
15259;DHT22;34462;51.368;12.364;2024-01-11T07:00:40;-7.60;99.90
15259;DHT22;34462;51.368;12.364;2024-01-11T07:03:10;-7.60;99.90
15259;DHT22;34462;51.368;12.364;2024-01-11T07:05:39;-7.50;99.90
15259;DHT22;34462;51.368;12.364;2024-01-11T07:08:08;-7.50;99.90
15259;DHT22;34462;51.368;12.364;2024-01-11T07:10:36;-7.40;99.90
15259;DHT22;34462;51.368;12.364;2024-01-11T07:13:05;-7.30;99.90
15259;DHT22;34462;51.368;12.364;2024-01-11T07:15:33;-7.30;99.90
15259;DHT22;34462;51.368;12.364;2024-01-11T07:18:04;-7.30;99.90
15259;DHT22;34462;51.368;12.364;2024-01-11T07:20:32;-7.20;99.90
15259;DHT22;34462;51.368;12.364;2024-01-11T07:23:01;-7.20;99.90
15259;DHT22;34462;51.368;12.364;2024-01-11T07:25:30;-7.20;99.90
15259;DHT22;34462;51.368;12.364;2024-01-11T07:27:58;-7.20;99.90
15259;DHT22;34462;51.368;12.364;2024-01-11T07:30:26;-7.20;99.90
15259;DHT22;34462;51.368;12.364;2024-01-11T07:32:55;-7.30;99.90
15259;DHT22;34462;51.368;12.364;2024-01-11T07:35:25;-7.30;99.90
15259;DHT22;34462;51.368;12.364;2024-01-11T07:37:53;-7.20;99.90
15259;DHT22;34462;51.368;12.364;2024-01-11T07:40:23;-7.20;99.90
15259;DHT22;34462;51.368;12.364;2024-01-11T07:42:51;-7.20;99.90
15259;DHT22;34462;51.368;12.364;2024-01-11T07:45:20;-7.20;99.90
15259;DHT22;34462;51.368;12.364;2024-01-11T07:47:48;-7.10;99.90
15259;DHT22;34462;51.368;12.364;2024-01-11T07:50:17;-7.10;99.90
15259;DHT22;34462;51.368;12.364;2024-01-11T07:52:47;-7.10;99.90
15259;DHT22;34462;51.368;12.364;2024-01-11T07:55:15;-7.10;99.90
15259;DHT22;34462;51.368;12.364;2024-01-11T07:57:43;-7.10;99.90
15259;DHT22;34462;51.368;12.364;2024-01-11T08:00:12;-7.10;99.90
15259;DHT22;34462;51.368;12.364;2024-01-11T08:02:41;-7.10;99.90
15259;DHT22;34462;51.368;12.364;2024-01-11T08:05:10;-7.00;99.90
15259;DHT22;34462;51.368;12.364;2024-01-11T08:07:39;-7.00;99.90
15259;DHT22;34462;51.368;12.364;2024-01-11T08:10:10;-7.00;99.90
15259;DHT22;34462;51.368;12.364;2024-01-11T08:12:38;-7.00;99.90
15259;DHT22;34462;51.368;12.364;2024-01-11T08:15:07;-6.90;99.90
15259;DHT22;34462;51.368;12.364;2024-01-11T08:17:39;-6.90;99.90
15259;DHT22;34462;51.368;12.364;2024-01-11T08:20:14;-6.70;99.90
15259;DHT22;34462;51.368;12.364;2024-01-11T08:22:43;-6.70;99.90
15259;DHT22;34462;51.368;12.364;2024-01-11T08:25:14;-6.50;99.90
15259;DHT22;34462;51.368;12.364;2024-01-11T08:27:42;-6.50;99.90
15259;DHT22;34462;51.368;12.364;2024-01-11T08:30:11;-6.50;99.90
15259;DHT22;34462;51.368;12.364;2024-01-11T08:32:40;-6.40;99.90
15259;DHT22;34462;51.368;12.364;2024-01-11T08:35:09;-6.20;99.90
15259;DHT22;34462;51.368;12.364;2024-01-11T08:37:38;-6.20;99.90
15259;DHT22;34462;51.368;12.364;2024-01-11T08:40:07;-6.00;99.90
15259;DHT22;34462;51.368;12.364;2024-01-11T08:42:39;-5.90;99.90
15259;DHT22;34462;51.368;12.364;2024-01-11T08:45:10;-5.80;99.90
15259;DHT22;34462;51.368;12.364;2024-01-11T08:47:45;-5.80;99.90
15259;DHT22;34462;51.368;12.364;2024-01-11T08:50:15;-5.70;99.90
15259;DHT22;34462;51.368;12.364;2024-01-11T08:52:49;-5.70;99.90
15259;DHT22;34462;51.368;12.364;2024-01-11T08:55:17;-5.70;99.90
15259;DHT22;34462;51.368;12.364;2024-01-11T08:57:47;-5.80;99.90
15259;DHT22;34462;51.368;12.364;2024-01-11T09:00:15;-5.70;99.90
15259;DHT22;34462;51.368;12.364;2024-01-11T09:02:45;-5.60;99.90
15259;DHT22;34462;51.368;12.364;2024-01-11T09:05:15;-5.50;99.90
15259;DHT22;34462;51.368;12.364;2024-01-11T09:07:43;-5.40;99.90
15259;DHT22;34462;51.368;12.364;2024-01-11T09:10:12;-5.40;99.90
15259;DHT22;34462;51.368;12.364;2024-01-11T09:12:40;-5.40;99.90
15259;DHT22;34462;51.368;12.364;2024-01-11T09:15:10;-5.40;99.90
15259;DHT22;34462;51.368;12.364;2024-01-11T09:17:39;-5.40;99.90
15259;DHT22;34462;51.368;12.364;2024-01-11T09:20:08;-5.40;99.90
15259;DHT22;34462;51.368;12.364;2024-01-11T09:22:41;-5.30;99.90
15259;DHT22;34462;51.368;12.364;2024-01-11T09:25:09;-5.30;99.90
15259;DHT22;34462;51.368;12.364;2024-01-11T09:27:37;-5.20;99.90
15259;DHT22;34462;51.368;12.364;2024-01-11T09:30:07;-5.10;99.90
15259;DHT22;34462;51.368;12.364;2024-01-11T09:32:37;-5.00;99.90
15259;DHT22;34462;51.368;12.364;2024-01-11T09:35:06;-4.80;99.90
15259;DHT22;34462;51.368;12.364;2024-01-11T09:37:39;-4.70;99.90
15259;DHT22;34462;51.368;12.364;2024-01-11T09:40:08;-4.70;99.90
15259;DHT22;34462;51.368;12.364;2024-01-11T09:42:37;-4.50;99.90
15259;DHT22;34462;51.368;12.364;2024-01-11T09:45:09;-4.50;99.90
15259;DHT22;34462;51.368;12.364;2024-01-11T09:47:40;-4.50;99.90
15259;DHT22;34462;51.368;12.364;2024-01-11T09:50:09;-4.40;99.90
15259;DHT22;34462;51.368;12.364;2024-01-11T09:52:42;-4.40;99.90
15259;DHT22;34462;51.368;12.364;2024-01-11T09:55:14;-4.30;99.90
15259;DHT22;34462;51.368;12.364;2024-01-11T09:57:45;-4.30;99.90
15259;DHT22;34462;51.368;12.364;2024-01-11T10:00:17;-4.20;99.90
15259;DHT22;34462;51.368;12.364;2024-01-11T10:02:48;-4.20;99.90
15259;DHT22;34462;51.368;12.364;2024-01-11T10:05:19;-3.90;99.90
15259;DHT22;34462;51.368;12.364;2024-01-11T10:07:47;-3.70;99.90
15259;DHT22;34462;51.368;12.364;2024-01-11T10:10:15;-3.50;99.90
15259;DHT22;34462;51.368;12.364;2024-01-11T10:12:44;-3.50;99.90
15259;DHT22;34462;51.368;12.364;2024-01-11T10:15:13;-3.60;99.90
15259;DHT22;34462;51.368;12.364;2024-01-11T10:17:42;-3.60;99.90
15259;DHT22;34462;51.368;12.364;2024-01-11T10:20:14;-3.70;99.90
15259;DHT22;34462;51.368;12.364;2024-01-11T10:22:45;-3.70;99.90
15259;DHT22;34462;51.368;12.364;2024-01-11T10:25:15;-3.70;99.90
15259;DHT22;34462;51.368;12.364;2024-01-11T10:27:45;-3.60;99.90
15259;DHT22;34462;51.368;12.364;2024-01-11T10:30:15;-3.60;99.90
15259;DHT22;34462;51.368;12.364;2024-01-11T10:32:45;-3.60;99.90
15259;DHT22;34462;51.368;12.364;2024-01-11T10:35:16;-3.50;99.90
15259;DHT22;34462;51.368;12.364;2024-01-11T10:37:45;-3.60;99.90
15259;DHT22;34462;51.368;12.364;2024-01-11T10:40:21;-3.60;99.90
15259;DHT22;34462;51.368;12.364;2024-01-11T10:42:52;-3.60;99.90
15259;DHT22;34462;51.368;12.364;2024-01-11T10:45:21;-3.50;99.90
15259;DHT22;34462;51.368;12.364;2024-01-11T10:47:54;-3.40;99.90
15259;DHT22;34462;51.368;12.364;2024-01-11T10:50:33;-3.30;99.90
15259;DHT22;34462;51.368;12.364;2024-01-11T10:53:12;-3.20;99.90
15259;DHT22;34462;51.368;12.364;2024-01-11T10:55:45;-3.10;99.90
15259;DHT22;34462;51.368;12.364;2024-01-11T10:58:16;-3.00;99.90
15259;DHT22;34462;51.368;12.364;2024-01-11T11:00:46;-2.90;99.90
15259;DHT22;34462;51.368;12.364;2024-01-11T11:03:18;-2.70;99.90
15259;DHT22;34462;51.368;12.364;2024-01-11T11:05:50;-2.60;99.90
15259;DHT22;34462;51.368;12.364;2024-01-11T11:08:23;-2.30;99.90
15259;DHT22;34462;51.368;12.364;2024-01-11T11:10:55;-2.10;99.90
15259;DHT22;34462;51.368;12.364;2024-01-11T11:13:25;-2.00;99.90
15259;DHT22;34462;51.368;12.364;2024-01-11T11:15:54;-1.80;99.90
15259;DHT22;34462;51.368;12.364;2024-01-11T11:18:27;-1.80;99.90
15259;DHT22;34462;51.368;12.364;2024-01-11T11:20:57;-1.70;99.90
15259;DHT22;34462;51.368;12.364;2024-01-11T11:23:26;-1.50;99.90
15259;DHT22;34462;51.368;12.364;2024-01-11T11:25:55;-1.30;99.90
15259;DHT22;34462;51.368;12.364;2024-01-11T11:28:26;-1.30;99.90
15259;DHT22;34462;51.368;12.364;2024-01-11T11:30:54;-1.40;99.90
15259;DHT22;34462;51.368;12.364;2024-01-11T11:33:24;-1.60;99.90
15259;DHT22;34462;51.368;12.364;2024-01-11T11:35:54;-1.70;99.90
15259;DHT22;34462;51.368;12.364;2024-01-11T11:38:27;-1.70;99.90
15259;DHT22;34462;51.368;12.364;2024-01-11T11:40:58;-1.90;99.90
15259;DHT22;34462;51.368;12.364;2024-01-11T11:43:28;-1.90;99.90
15259;DHT22;34462;51.368;12.364;2024-01-11T11:45:57;-1.80;99.90
15259;DHT22;34462;51.368;12.364;2024-01-11T11:48:49;-1.80;99.90
15259;DHT22;34462;51.368;12.364;2024-01-11T11:51:23;-1.60;99.90
15259;DHT22;34462;51.368;12.364;2024-01-11T11:53:55;-1.40;99.90
15259;DHT22;34462;51.368;12.364;2024-01-11T11:56:25;-1.30;99.90
15259;DHT22;34462;51.368;12.364;2024-01-11T11:58:53;-1.10;99.90
15259;DHT22;34462;51.368;12.364;2024-01-11T12:01:22;-1.00;99.90
15259;DHT22;34462;51.368;12.364;2024-01-11T12:03:52;-1.00;99.90
15259;DHT22;34462;51.368;12.364;2024-01-11T12:06:22;-0.90;99.90
15259;DHT22;34462;51.368;12.364;2024-01-11T12:08:54;-0.90;99.90
15259;DHT22;34462;51.368;12.364;2024-01-11T12:11:24;-1.00;99.90
15259;DHT22;34462;51.368;12.364;2024-01-11T12:13:54;-1.00;99.90
15259;DHT22;34462;51.368;12.364;2024-01-11T12:16:24;-1.00;99.90
15259;DHT22;34462;51.368;12.364;2024-01-11T12:18:54;-1.10;99.90
15259;DHT22;34462;51.368;12.364;2024-01-11T12:21:24;-1.00;99.90
15259;DHT22;34462;51.368;12.364;2024-01-11T12:23:53;-0.90;99.90
15259;DHT22;34462;51.368;12.364;2024-01-11T12:26:21;-0.90;99.90
15259;DHT22;34462;51.368;12.364;2024-01-11T12:28:51;-0.90;99.90
15259;DHT22;34462;51.368;12.364;2024-01-11T12:31:21;-1.00;99.90
15259;DHT22;34462;51.368;12.364;2024-01-11T12:33:50;-1.00;99.90
15259;DHT22;34462;51.368;12.364;2024-01-11T12:36:19;-1.00;99.90
15259;DHT22;34462;51.368;12.364;2024-01-11T12:38:49;-1.00;99.90
15259;DHT22;34462;51.368;12.364;2024-01-11T12:41:21;-1.10;99.90
15259;DHT22;34462;51.368;12.364;2024-01-11T12:43:51;-1.10;99.90
15259;DHT22;34462;51.368;12.364;2024-01-11T12:46:20;-1.20;99.90
15259;DHT22;34462;51.368;12.364;2024-01-11T12:48:49;-1.30;99.90
15259;DHT22;34462;51.368;12.364;2024-01-11T12:51:19;-1.40;99.90
15259;DHT22;34462;51.368;12.364;2024-01-11T12:53:51;-1.40;99.90
15259;DHT22;34462;51.368;12.364;2024-01-11T12:56:21;-1.30;99.90
15259;DHT22;34462;51.368;12.364;2024-01-11T12:58:50;-1.30;99.90
15259;DHT22;34462;51.368;12.364;2024-01-11T13:01:18;-1.30;99.90
15259;DHT22;34462;51.368;12.364;2024-01-11T13:03:48;-1.20;99.90
15259;DHT22;34462;51.368;12.364;2024-01-11T13:06:16;-1.10;99.90
15259;DHT22;34462;51.368;12.364;2024-01-11T13:08:46;-1.00;99.90
15259;DHT22;34462;51.368;12.364;2024-01-11T13:11:16;-1.00;99.90
15259;DHT22;34462;51.368;12.364;2024-01-11T13:13:47;-1.00;99.90
15259;DHT22;34462;51.368;12.364;2024-01-11T13:16:16;-0.90;99.90
15259;DHT22;34462;51.368;12.364;2024-01-11T13:18:46;-0.90;99.90
15259;DHT22;34462;51.368;12.364;2024-01-11T13:21:14;-1.00;99.90
15259;DHT22;34462;51.368;12.364;2024-01-11T13:23:43;-1.00;99.90
15259;DHT22;34462;51.368;12.364;2024-01-11T13:26:11;-1.10;99.90
15259;DHT22;34462;51.368;12.364;2024-01-11T13:28:41;-1.10;99.90
15259;DHT22;34462;51.368;12.364;2024-01-11T13:31:09;-1.20;99.90
15259;DHT22;34462;51.368;12.364;2024-01-11T13:33:38;-1.20;99.90
15259;DHT22;34462;51.368;12.364;2024-01-11T13:36:07;-1.10;99.90
15259;DHT22;34462;51.368;12.364;2024-01-11T13:38:36;-1.20;99.90
15259;DHT22;34462;51.368;12.364;2024-01-11T13:41:05;-1.20;99.90
15259;DHT22;34462;51.368;12.364;2024-01-11T13:43:35;-1.20;99.90
15259;DHT22;34462;51.368;12.364;2024-01-11T13:46:05;-1.20;99.90
15259;DHT22;34462;51.368;12.364;2024-01-11T13:48:34;-1.20;99.90
15259;DHT22;34462;51.368;12.364;2024-01-11T13:51:03;-1.10;99.90
15259;DHT22;34462;51.368;12.364;2024-01-11T13:53:32;-1.10;99.90
15259;DHT22;34462;51.368;12.364;2024-01-11T13:56:00;-1.10;99.90
15259;DHT22;34462;51.368;12.364;2024-01-11T13:58:29;-1.20;99.90
15259;DHT22;34462;51.368;12.364;2024-01-11T14:00:57;-1.20;99.90
15259;DHT22;34462;51.368;12.364;2024-01-11T14:03:27;-1.30;99.90
15259;DHT22;34462;51.368;12.364;2024-01-11T14:05:56;-1.30;99.90
15259;DHT22;34462;51.368;12.364;2024-01-11T14:08:25;-1.40;99.90
15259;DHT22;34462;51.368;12.364;2024-01-11T14:10:53;-1.40;99.90
15259;DHT22;34462;51.368;12.364;2024-01-11T14:13:22;-1.40;99.90
15259;DHT22;34462;51.368;12.364;2024-01-11T14:15:50;-1.40;99.90
15259;DHT22;34462;51.368;12.364;2024-01-11T14:18:20;-1.50;99.90
15259;DHT22;34462;51.368;12.364;2024-01-11T14:20:52;-1.50;99.90
15259;DHT22;34462;51.368;12.364;2024-01-11T14:23:20;-1.60;99.90
15259;DHT22;34462;51.368;12.364;2024-01-11T14:25:49;-1.70;99.90
15259;DHT22;34462;51.368;12.364;2024-01-11T14:28:17;-1.70;99.90
15259;DHT22;34462;51.368;12.364;2024-01-11T14:30:45;-1.70;99.90
15259;DHT22;34462;51.368;12.364;2024-01-11T14:33:14;-1.70;99.90
15259;DHT22;34462;51.368;12.364;2024-01-11T14:35:42;-1.70;99.90
15259;DHT22;34462;51.368;12.364;2024-01-11T14:38:12;-1.50;99.90
15259;DHT22;34462;51.368;12.364;2024-01-11T14:40:40;-1.80;99.90
15259;DHT22;34462;51.368;12.364;2024-01-11T14:43:09;-1.80;99.90
15259;DHT22;34462;51.368;12.364;2024-01-11T14:45:37;-1.90;99.90
15259;DHT22;34462;51.368;12.364;2024-01-11T14:48:06;-2.00;99.90
15259;DHT22;34462;51.368;12.364;2024-01-11T14:50:35;-1.90;99.90
15259;DHT22;34462;51.368;12.364;2024-01-11T14:53:03;-2.00;99.90
15259;DHT22;34462;51.368;12.364;2024-01-11T14:55:35;-2.10;99.90
15259;DHT22;34462;51.368;12.364;2024-01-11T14:58:04;-2.10;99.90
15259;DHT22;34462;51.368;12.364;2024-01-11T15:00:32;-2.20;99.90
15259;DHT22;34462;51.368;12.364;2024-01-11T15:03:01;-2.10;99.90
15259;DHT22;34462;51.368;12.364;2024-01-11T15:05:31;-2.30;99.90
15259;DHT22;34462;51.368;12.364;2024-01-11T15:08:00;-2.30;99.90
15259;DHT22;34462;51.368;12.364;2024-01-11T15:10:29;-2.30;99.90
15259;DHT22;34462;51.368;12.364;2024-01-11T15:12:59;-2.40;99.90
15259;DHT22;34462;51.368;12.364;2024-01-11T15:15:27;-2.40;99.90
15259;DHT22;34462;51.368;12.364;2024-01-11T15:17:56;-2.40;99.90
15259;DHT22;34462;51.368;12.364;2024-01-11T15:20:25;-2.40;99.90
15259;DHT22;34462;51.368;12.364;2024-01-11T15:22:53;-2.40;99.90
15259;DHT22;34462;51.368;12.364;2024-01-11T15:25:21;-2.40;99.90
15259;DHT22;34462;51.368;12.364;2024-01-11T15:27:51;-2.40;99.90